Nearby METAR Reports

 

KFNL - Ft Collins/Lovel, Colorado, USA
Distance from station: E 23mi, 37km
Updated: Sun, 17-Jan-2021 4:56am MST
Overcast
Overcast
 Wind from SSW
Wind: SSW 6 mph , 9 km/h
Temperature: 28°F , -2°C
Wind Chill: 21°F , -6°C
Dew Point: 21°F , -6°C
Humidity: 74%
Barometer: 30.11 inHg , 1019.6 hPa
Clouds: Overcast
Visibility: 10 miles , 16 km
Cloud details: Overcast 12000 ft
2021/01/17 11:56 KFNL 171156Z AUTO 20005KT 10SM OVC120 M02/M06 A3011 RMK AO2 SLP211 T10221061 11017 21028 55002 FZRANO
KLMO - Longmont/Vbrand, Colorado, USA
Distance from station: SE 26mi, 41km
Updated: Sun, 17-Jan-2021 5:15am MST
Overcast
Overcast
 Wind from calm
Wind: Calm
Temperature: 30°F , -1°C
Dew Point: 23°F , -5°C
Humidity: 75%
Barometer: 30.12 inHg , 1020 hPa
Clouds: Overcast
Visibility: 10 miles , 16 km
Cloud details: Overcast 11000 ft
2021/01/17 12:15 KLMO 171215Z AUTO 00000KT 10SM OVC110 M01/M05 A3012 RMK AO2 T10111052
 
KBDU - Boulder Muni, Colorado, USA
Distance from station: SSE 32mi, 52km
Updated: Sun, 17-Jan-2021 5:15am MST
Overcast
Overcast
 Wind from calm
Wind: Calm
Temperature: 32°F , 0°C
Dew Point: 19°F , -7°C
Humidity: 60%
Barometer: 30.09 inHg , 1019 hPa
Clouds: Overcast
Visibility: 10 miles , 16 km
Cloud details: Mostly cloudy 9000 ft
Overcast 11000 ft
2021/01/17 12:15 KBDU 171215Z AUTO 00000KT 10SM BKN090 OVC110 00/M07 A3009 RMK AO2
KEIK - Erie Muni, Colorado, USA
Distance from station: SE 38mi, 61km
Updated: Sun, 17-Jan-2021 5:15am MST
Partly cloudy
Partly cloudy
 Wind from calm
Wind: Calm
Temperature: 28°F , -2°C
Dew Point: 23°F , -5°C
Humidity: 80%
Barometer: 30.10 inHg , 1019.3 hPa
Clouds: Partly cloudy
Visibility: 10 miles , 16 km
Cloud details: Partly cloudy 10000 ft
2021/01/17 12:15 KEIK 171215Z AUTO 00000KT 10SM SCT100 M02/M05 A3010 RMK AO2 T10241054
 
KBJC - Broomfield/Jeffc, Colorado, USA
Distance from station: SSE 44mi, 70km
Updated: Sun, 17-Jan-2021 5:15am MST
Mostly cloudy
Mostly cloudy
 Wind from S
Wind: S 6 mph , 9 km/h
Temperature: 30°F , -1°C
Wind Chill: 24°F , -4°C
Dew Point: 19°F , -7°C
Humidity: 64%
Barometer: 30.08 inHg , 1018.6 hPa
Clouds: Mostly cloudy
Visibility: 10 miles , 16 km
Cloud details: Partly cloudy 9000 ft
Mostly cloudy 12000 ft
2021/01/17 12:15 KBJC 171215Z AUTO 18005KT 10SM SCT090 BKN120 M01/M07 A3008 RMK AO2
KGXY - Greeley/Weld, Colorado, USA
Distance from station: E 44mi, 71km
Updated: Sun, 17-Jan-2021 4:56am MST
Overcast
Overcast
 Wind from calm
Wind: Calm
Temperature: 27°F , -3°C
Dew Point: 21°F , -6°C
Humidity: 80%
Barometer: 30.12 inHg , 1020 hPa
Clouds: Overcast
Visibility: 10 miles , 16 km
Cloud details: Overcast 10000 ft
2021/01/17 11:56 KGXY 171156Z AUTO 00000KT 10SM OVC100 M03/M06 A3012 RMK AO2 SLP233 7//// T10331061 11022 21061 55003 FZRANO
 
K33V - Walden, Colorado, USA
Distance from station: WNW 48mi, 77km
Updated: Sun, 17-Jan-2021 5:15am MST
Overcast
Overcast
 Wind from SE
Wind: SE 5 mph , 7 km/h
Temperature: 19°F , -7°C
Wind Chill: 12°F , -11°C
Dew Point: 10°F , -12°C
Humidity: 68%
Barometer: 30.14 inHg , 1020.7 hPa
Clouds: Overcast
Visibility: 10 miles , 16 km
Cloud details: Partly cloudy 2700 ft
Mostly cloudy 4100 ft
Overcast 4800 ft
2021/01/17 12:15 K33V 171215Z AUTO 14004KT 10SM SCT027 BKN041 OVC048 M07/M12 A3014 RMK AO2 T10671118
K0CO - Berthoud Pass, Colorado, USA
Distance from station: SSW 49mi, 79km
Updated: Sun, 17-Jan-2021 5:15am MST
Overcast
Overcast
 Wind from NW
Wind: NW 39 mph , 63 km/h, Gust: 58 mph , 93 km/h
Temperature: 7°F , -14°C
Wind Chill: -19°F , -28°C
Dew Point: -9°F , -23°C
Humidity: 47%
Barometer: 30.01 inHg , 1016.3 hPa
Clouds: Overcast
Visibility: 10 miles , 16 km
Cloud details: Partly cloudy 2200 ft
Partly cloudy 2800 ft
Overcast 4600 ft
2021/01/17 12:15 K0CO 171215Z AUTO 31034G50KT 10SM SCT022 SCT028 OVC046 M14/M23 A3001 RMK AO2